createdAt,value
2022-08-11T00:01:59.337Z,4.10
2022-08-11T00:07:04.090Z,3.92
2022-08-11T00:12:14.826Z,4.13
2022-08-11T00:17:18.290Z,3.90
2022-08-11T00:22:22.146Z,3.42
2022-08-11T00:27:34.677Z,3.50
2022-08-11T00:32:38.407Z,3.70
2022-08-11T00:37:42.841Z,3.70
2022-08-11T00:42:59.931Z,3.90
2022-08-11T00:48:09.711Z,4.05
2022-08-11T00:53:47.863Z,4.10
2022-08-11T00:59:36.688Z,4.10
2022-08-11T01:05:18.077Z,4.50
2022-08-11T01:10:54.814Z,5.03
2022-08-11T01:16:14.234Z,4.68
2022-08-11T01:21:57.171Z,4.43
2022-08-11T01:27:47.288Z,4.10
2022-08-11T01:33:44.123Z,4.53
2022-08-11T01:39:26.315Z,4.63
2022-08-11T01:45:18.376Z,4.28
2022-08-11T01:50:57.157Z,4.20
2022-08-11T01:56:09.786Z,4.90
2022-08-11T02:01:26.781Z,4.60
2022-08-11T02:06:51.648Z,4.90
2022-08-11T02:11:59.648Z,4.88
2022-08-11T02:17:17.001Z,5.20
2022-08-11T02:22:44.254Z,4.90
2022-08-11T02:27:54.637Z,4.75
2022-08-11T02:33:24.823Z,4.43
2022-08-11T02:38:35.675Z,4.78
2022-08-11T02:43:50.876Z,4.47
2022-08-11T02:49:27.121Z,4.50
2022-08-11T02:54:44.247Z,4.95
2022-08-11T02:59:53.619Z,4.68
2022-08-11T03:05:08.505Z,4.63
2022-08-11T03:10:14.920Z,4.90
2022-08-11T03:16:00.555Z,4.68
2022-08-11T03:21:07.465Z,4.90
2022-08-11T03:26:15.078Z,5.30
2022-08-11T03:31:25.229Z,5.32
2022-08-11T03:37:36.047Z,5.25
2022-08-11T03:42:47.909Z,4.82
2022-08-11T03:48:05.956Z,5.00
2022-08-11T03:53:17.911Z,4.72
2022-08-11T03:58:41.753Z,5.18
2022-08-11T04:04:04.551Z,4.55
2022-08-11T04:09:34.089Z,5.00
2022-08-11T04:15:17.508Z,5.55
2022-08-11T04:20:31.183Z,5.78
2022-08-11T04:26:18.896Z,5.75
2022-08-11T04:31:44.439Z,5.05
2022-08-11T04:37:34.742Z,5.70
2022-08-11T04:43:25.156Z,5.55
2022-08-11T04:49:27.512Z,5.60
2022-08-11T04:55:22.159Z,5.25
2022-08-11T05:00:45.322Z,5.68
2022-08-11T05:06:09.036Z,5.32
2022-08-11T05:11:45.167Z,5.90
2022-08-11T05:17:10.819Z,5.60
2022-08-11T05:22:32.469Z,5.80
2022-08-11T05:27:56.062Z,5.75
2022-08-11T05:33:19.120Z,6.43
2022-08-11T05:38:41.352Z,6.47
2022-08-11T05:44:21.031Z,5.80
2022-08-11T05:49:44.127Z,5.50
2022-08-11T05:55:06.124Z,5.35
2022-08-11T06:00:11.844Z,6.30
2022-08-11T06:05:16.550Z,4.60
2022-08-11T06:10:30.900Z,4.75
2022-08-11T06:15:35.085Z,5.20
2022-08-11T06:20:47.214Z,5.30
2022-08-11T06:25:51.214Z,4.40
2022-08-11T06:30:54.644Z,3.40
2022-08-11T06:36:04.090Z,3.72
2022-08-11T06:41:32.737Z,3.30
2022-08-11T06:46:39.800Z,3.22
2022-08-11T06:51:48.563Z,3.30
2022-08-11T06:57:29.469Z,3.30
2022-08-11T07:02:35.261Z,3.25
2022-08-11T07:08:34.089Z,3.45
2022-08-11T07:13:57.453Z,3.22
2022-08-11T07:19:20.512Z,3.00
2022-08-11T07:25:01.388Z,3.05
2022-08-11T07:30:09.377Z,3.08
2022-08-11T07:35:14.097Z,3.00
2022-08-11T07:40:20.798Z,2.95
2022-08-11T07:45:45.015Z,3.38
2022-08-11T07:51:05.559Z,3.20
2022-08-11T07:56:17.384Z,2.80
2022-08-11T08:01:45.203Z,3.25
2022-08-11T08:07:06.928Z,3.00
2022-08-11T08:12:27.744Z,3.00
2022-08-11T08:18:20.556Z,2.90
2022-08-11T08:23:15.591Z,2.90
2022-08-11T08:28:19.050Z,2.97
2022-08-11T08:33:25.121Z,2.85
2022-08-11T08:38:29.233Z,2.90
2022-08-11T08:43:48.398Z,2.67
2022-08-11T08:48:56.723Z,2.45
2022-08-11T08:54:02.664Z,3.25
2022-08-11T08:59:08.281Z,2.63
2022-08-11T09:04:17.431Z,2.70
2022-08-11T09:09:29.042Z,2.67
2022-08-11T09:14:51.010Z,2.95
2022-08-11T09:20:05.596Z,2.60
2022-08-11T09:25:29.503Z,2.50
2022-08-11T09:30:36.012Z,2.50
2022-08-11T09:35:49.154Z,2.72
2022-08-11T09:40:56.934Z,2.40
2022-08-11T09:46:00.820Z,2.20
2022-08-11T09:51:20.939Z,2.17
2022-08-11T09:56:43.414Z,2.28
2022-08-11T10:01:50.189Z,2.40
2022-08-11T10:07:07.179Z,2.40
2022-08-11T10:12:18.432Z,2.17
2022-08-11T10:17:22.949Z,1.95
2022-08-11T10:22:46.611Z,2.20
2022-08-11T10:28:28.747Z,2.35
2022-08-11T10:33:37.814Z,2.40
2022-08-11T10:38:52.271Z,2.63
2022-08-11T10:44:03.080Z,2.30
2022-08-11T10:49:10.189Z,2.50
2022-08-11T10:54:36.625Z,2.20
2022-08-11T10:59:42.746Z,2.20
2022-08-11T11:04:56.963Z,2.30
2022-08-11T11:10:05.398Z,2.00
2022-08-11T11:15:30.676Z,2.03
2022-08-11T11:20:39.344Z,2.03
2022-08-11T11:26:27.750Z,1.92
2022-08-11T11:31:36.757Z,1.92
2022-08-11T11:36:46.749Z,1.90
2022-08-11T11:41:55.324Z,1.80
2022-08-11T11:46:59.030Z,1.92
2022-08-11T11:52:08.181Z,1.75
2022-08-11T11:57:42.203Z,1.80
2022-08-11T12:03:02.907Z,1.85
2022-08-11T12:08:14.525Z,1.65
2022-08-11T12:13:37.557Z,1.60
2022-08-11T12:18:42.371Z,1.90
2022-08-11T12:24:06.602Z,1.50
2022-08-11T12:29:12.014Z,1.63
2022-08-11T12:34:16.528Z,1.67
2022-08-11T12:40:16.699Z,1.80
2022-08-11T12:45:28.781Z,1.63
2022-08-11T12:51:25.159Z,1.60
2022-08-11T12:56:46.522Z,1.70
2022-08-11T13:02:09.875Z,1.77
2022-08-11T13:07:16.192Z,1.40
2022-08-11T13:12:36.789Z,1.73
2022-08-11T13:17:45.584Z,1.90
2022-08-11T13:22:51.520Z,1.80
2022-08-11T13:28:01.176Z,1.80
2022-08-11T13:33:07.585Z,1.88
2022-08-11T13:43:30.769Z,1.80
2022-08-11T13:48:36.413Z,2.00
2022-08-11T13:53:39.556Z,1.83
2022-08-11T13:58:43.785Z,1.70
2022-08-11T14:04:29.759Z,1.90
2022-08-11T14:09:31.562Z,1.70
2022-08-11T14:14:35.721Z,1.80
2022-08-11T14:19:42.570Z,1.83
2022-08-11T14:24:49.887Z,1.80
2022-08-11T14:29:54.228Z,1.80
2022-08-11T14:34:58.980Z,2.15
2022-08-11T14:40:24.300Z,1.88
2022-08-11T14:45:57.938Z,1.80
2022-08-11T14:51:09.668Z,2.35
2022-08-11T14:56:30.841Z,1.70
2022-08-11T15:01:54.453Z,2.00
2022-08-11T15:06:59.679Z,1.90
2022-08-11T15:12:32.494Z,2.17
2022-08-11T15:17:42.916Z,1.67
2022-08-11T15:23:25.092Z,2.10
2022-08-11T15:28:53.912Z,1.77
2022-08-11T15:34:19.232Z,2.25
2022-08-11T15:39:26.551Z,2.60
2022-08-11T15:45:06.291Z,2.35
2022-08-11T15:50:13.828Z,2.17
2022-08-11T15:55:24.170Z,2.10
2022-08-11T16:00:44.999Z,1.92
2022-08-11T16:05:53.147Z,2.40
2022-08-11T16:10:57.888Z,2.25
2022-08-11T16:16:17.293Z,2.30
2022-08-11T16:21:26.053Z,2.20
2022-08-11T16:27:08.099Z,2.15
2022-08-11T16:32:23.318Z,2.40
2022-08-11T16:37:59.143Z,2.47
2022-08-11T16:43:21.766Z,2.30
2022-08-11T16:48:36.547Z,2.30
2022-08-11T16:59:15.178Z,2.10
2022-08-11T17:04:43.655Z,2.60
2022-08-11T17:10:04.853Z,2.20
2022-08-11T17:15:47.375Z,2.40
2022-08-11T17:20:55.596Z,2.17
2022-08-11T17:26:04.049Z,2.33
2022-08-11T17:31:27.317Z,2.88
2022-08-11T17:36:30.648Z,2.50
2022-08-11T17:41:51.487Z,2.42
2022-08-11T17:47:14.132Z,2.33
2022-08-11T17:52:36.953Z,2.70
2022-08-11T17:57:58.023Z,2.35
2022-08-11T18:03:20.129Z,2.42
2022-08-11T18:08:41.075Z,2.70
2022-08-11T18:14:01.899Z,3.05
2022-08-11T18:19:24.430Z,2.90
2022-08-11T18:24:48.158Z,3.33
2022-08-11T18:30:09.486Z,3.00
2022-08-11T18:35:31.966Z,2.80
2022-08-11T18:40:54.228Z,3.60
2022-08-11T18:52:06.648Z,2.80
2022-08-11T18:57:27.621Z,3.70
2022-08-11T19:02:53.560Z,3.78
2022-08-11T19:08:17.206Z,3.67
2022-08-11T19:13:42.593Z,3.33
2022-08-11T19:19:04.586Z,3.63
2022-08-11T19:24:27.114Z,3.25
2022-08-11T19:30:05.153Z,3.78
2022-08-11T19:35:28.782Z,3.85
2022-08-11T19:40:51.056Z,3.90
2022-08-11T19:46:12.918Z,3.75
2022-08-11T19:51:35.650Z,3.95
2022-08-11T19:56:57.913Z,3.50
2022-08-11T20:02:18.568Z,3.90
2022-08-11T20:07:41.557Z,3.63
2022-08-11T20:13:05.939Z,4.10
2022-08-11T20:18:28.086Z,3.83
2022-08-11T20:23:48.702Z,3.90
2022-08-11T20:29:14.417Z,3.78
2022-08-11T20:34:36.797Z,3.63
2022-08-11T20:39:58.365Z,3.78
2022-08-11T20:45:23.826Z,4.30
2022-08-11T20:50:46.035Z,4.30
2022-08-11T20:56:07.609Z,4.20
2022-08-11T21:01:38.615Z,3.88
2022-08-11T21:07:02.416Z,4.20
2022-08-11T21:12:23.510Z,4.40
2022-08-11T21:18:00.408Z,4.18
2022-08-11T21:23:29.109Z,4.30
2022-08-11T21:28:50.408Z,4.20
2022-08-11T21:34:15.218Z,4.45
2022-08-11T21:39:38.388Z,4.40
2022-08-11T21:44:59.561Z,4.72
2022-08-11T21:50:25.054Z,4.50
2022-08-11T21:55:47.598Z,5.05
2022-08-11T22:06:59.466Z,4.57
2022-08-11T22:12:29.994Z,4.57
2022-08-11T22:17:58.149Z,4.35
2022-08-11T22:23:23.314Z,4.55
2022-08-11T22:28:43.980Z,4.70
2022-08-11T22:34:09.623Z,4.57
2022-08-11T22:39:35.344Z,5.05
2022-08-11T22:44:56.489Z,4.97
2022-08-11T22:50:21.015Z,5.18
2022-08-11T22:55:44.750Z,5.15
2022-08-11T23:01:05.701Z,4.90
2022-08-11T23:06:27.234Z,4.90
2022-08-11T23:12:07.096Z,5.22
2022-08-11T23:17:34.044Z,4.75
2022-08-11T23:22:55.535Z,4.95
2022-08-11T23:28:18.057Z,5.07
2022-08-11T23:33:39.001Z,5.18
2022-08-11T23:38:59.699Z,5.35
2022-08-11T23:44:24.910Z,5.30
2022-08-11T23:49:47.279Z,5.28
2022-08-11T23:55:08.866Z,5.80
